Time;durP1;ratioP1;P1;durP2;ratioP2;P2;SDS_P1;SDS_P2;PMS_P1;PMS_P2;Temp;Humidity;BMP_temperature;BMP_pressure;BME280_temperature;BME280_humidity;BME280_pressure;Samples;Min_cycle;Max_cycle;Signal;HPM_P1;HPM_P2
2021/09/02 00:01:56;;;;;;;;;2.50;0.75;;;;;16.33;60.06;102158.44;5052515;27;45514;-81
2021/09/02 00:04:23;;;;;;;;;0.00;0.00;;;;;16.30;60.33;102166.28;5019173;28;45597;-81
2021/09/02 00:06:48;;;;;;;;;1.50;1.50;;;;;16.32;60.52;102164.56;5019314;28;45399;-81
2021/09/02 00:09:14;;;;;;;;;0.00;0.00;;;;;16.18;60.32;102138.19;5022910;27;45400;-80
2021/09/02 00:11:39;;;;;;;;;2.00;0.00;;;;;16.15;60.53;102142.53;5065944;27;45624;-80
2021/09/02 00:14:04;;;;;;;;;2.50;1.00;;;;;16.08;60.63;102131.97;5019060;28;45333;-80
2021/09/02 00:16:30;;;;;;;;;0.00;0.00;;;;;15.98;61.03;102116.16;5018888;28;45274;-80
2021/09/02 00:18:55;;;;;;;;;2.25;1.50;;;;;16.23;60.45;102163.63;5009500;27;45483;-80
2021/09/02 00:21:20;;;;;;;;;0.75;0.00;;;;;15.99;61.11;102126.69;5019765;27;45449;-80
2021/09/02 00:23:47;;;;;;;;;1.75;1.00;;;;;15.92;60.99;102114.28;5018904;28;45440;-79
2021/09/02 00:26:12;;;;;;;;;4.25;1.00;;;;;16.16;61.21;102157.41;5001985;28;45634;-80
2021/09/02 00:28:37;;;;;;;;;1.00;1.00;;;;;16.07;60.81;102134.59;5018604;28;45734;-79
2021/09/02 00:31:03;;;;;;;;;1.50;0.00;;;;;16.20;61.00;102149.59;5019555;28;45388;-79
2021/09/02 00:33:28;;;;;;;;;3.00;2.00;;;;;15.99;60.88;102118.78;5017614;28;46873;-79
2021/09/02 00:35:53;;;;;;;;;3.50;0.00;;;;;16.01;60.73;102124.91;5019512;28;45436;-80
2021/09/02 00:38:19;;;;;;;;;0.00;0.00;;;;;16.10;60.90;102139.88;5054822;27;45870;-81
2021/09/02 00:40:44;;;;;;;;;0.00;0.00;;;;;15.97;61.05;102117.88;5021753;28;45422;-80
2021/09/02 00:43:09;;;;;;;;;0.50;0.50;;;;;16.07;61.10;102137.22;5020759;27;47251;-78
2021/09/02 00:45:35;;;;;;;;;0.00;0.00;;;;;15.95;61.37;102109.06;5020291;28;45326;-80
2021/09/02 00:48:00;;;;;;;;;2.75;1.00;;;;;15.88;61.13;102104.63;5020174;28;45495;-82
2021/09/02 00:50:27;;;;;;;;;0.00;0.00;;;;;16.02;61.29;102136.31;5074850;27;45448;-81
2021/09/02 00:52:53;;;;;;;;;0.50;0.50;;;;;15.98;60.76;102137.16;5019918;27;45713;-82
2021/09/02 00:55:18;;;;;;;;;2.00;1.00;;;;;15.94;61.19;102137.09;5020052;28;45396;-81
2021/09/02 00:57:44;;;;;;;;;2.50;0.50;;;;;15.79;61.31;102122.09;5079159;27;45432;-80
2021/09/02 01:00:13;;;;;;;;;0.50;0.50;;;;;15.89;61.48;102137.94;5020785;28;45288;-79
2021/09/02 01:02:41;;;;;;;;;1.00;1.00;;;;;15.73;61.22;102119.41;5083646;27;48483;-81
2021/09/02 01:05:07;;;;;;;;;2.25;2.00;;;;;15.78;61.47;102132.56;5018025;27;45378;-80
2021/09/02 01:07:33;;;;;;;;;1.75;1.00;;;;;15.69;61.45;102107.13;5020323;28;45308;-81
2021/09/02 01:10:01;;;;;;;;;1.00;1.00;;;;;15.75;61.42;102128.19;5020509;27;45264;-81
2021/09/02 01:12:32;;;;;;;;;5.25;1.00;;;;;15.76;61.85;102132.56;5020322;28;46413;-80
2021/09/02 01:15:18;;;;;;;;;0.00;0.00;;;;;15.79;61.69;102145.72;5021147;28;45248;-81
2021/09/02 01:17:45;;;;;;;;;0.00;0.00;;;;;15.66;61.75;102131.59;5035194;28;45776;-80
2021/09/02 01:20:13;;;;;;;;;1.00;0.00;;;;;15.74;61.80;102146.53;5021021;28;45468;-81
2021/09/02 01:22:42;;;;;;;;;0.00;0.00;;;;;15.58;61.50;102112.25;5006198;27;47349;-79
2021/09/02 01:25:13;;;;;;;;;0.25;0.00;;;;;15.80;61.73;102143.94;5015602;28;45230;-80
2021/09/02 01:27:41;;;;;;;;;1.00;0.75;;;;;15.81;61.66;102138.72;5020316;28;45404;-80
2021/09/02 01:30:10;;;;;;;;;0.00;0.00;;;;;15.78;61.88;102133.47;5004886;28;45519;-79
2021/09/02 01:32:39;;;;;;;;;1.00;1.00;;;;;15.57;61.84;102100.91;5023054;28;46658;-79
2021/09/02 01:35:10;;;;;;;;;0.00;0.00;;;;;15.76;62.04;102118.53;5019195;27;45464;-80
2021/09/02 01:37:56;;;;;;;;;0.75;0.75;;;;;15.78;61.78;102116.81;5020682;28;45755;-79
2021/09/02 01:40:23;;;;;;;;;1.00;0.00;;;;;15.86;61.69;102119.53;5020013;28;45447;-80
2021/09/02 01:42:49;;;;;;;;;1.00;1.00;;;;;15.81;61.99;102119.47;5020678;27;45410;-80
2021/09/02 01:45:15;;;;;;;;;1.00;0.25;;;;;15.79;61.80;102124.72;5018961;28;45327;-80
2021/09/02 01:47:41;;;;;;;;;0.00;0.00;;;;;15.66;61.89;102109.72;5074739;27;45338;-80
2021/09/02 01:50:12;;;;;;;;;0.75;0.75;;;;;15.66;62.14;102118.47;5018818;28;45365;-80
2021/09/02 01:52:38;;;;;;;;;0.75;0.00;;;;;15.60;62.38;102121.03;5017824;28;46707;-79
2021/09/02 01:55:06;;;;;;;;;2.00;1.00;;;;;15.58;62.56;102113.16;5018209;28;45687;-79
2021/09/02 01:57:32;;;;;;;;;0.00;0.00;;;;;15.52;62.21;102107.84;5052725;27;45349;-80
2021/09/02 01:59:57;;;;;;;;;0.00;0.00;;;;;15.32;62.35;102087.50;5053043;27;45390;-79
2021/09/02 02:02:22;;;;;;;;;1.00;1.00;;;;;15.47;62.59;102112.16;5017662;28;45275;-79
2021/09/02 02:04:48;;;;;;;;;2.00;0.25;;;;;15.49;62.29;102118.28;5017881;28;45574;-79
2021/09/02 02:07:13;;;;;;;;;0.00;0.00;;;;;15.23;62.70;102076.03;5017933;27;45346;-80
2021/09/02 02:09:39;;;;;;;;;1.00;1.00;;;;;15.44;62.68;102112.13;5018209;28;45361;-79
2021/09/02 02:12:05;;;;;;;;;0.00;0.00;;;;;15.35;62.58;102107.66;5057246;27;47198;-80
2021/09/02 02:14:31;;;;;;;;;0.00;0.00;;;;;15.26;63.24;102099.69;5017397;28;45488;-80
2021/09/02 02:16:56;;;;;;;;;0.00;0.00;;;;;15.10;63.08;102078.53;5017600;28;45350;-80
2021/09/02 02:19:21;;;;;;;;;0.00;0.00;;;;;15.15;63.18;102089.06;5018279;28;45444;-80
2021/09/02 02:21:47;;;;;;;;;0.50;0.50;;;;;15.04;63.34;102068.84;5017599;28;45545;-80
2021/09/02 02:24:12;;;;;;;;;1.00;1.00;;;;;15.16;63.46;102098.72;5006017;27;45735;-79
2021/09/02 02:26:38;;;;;;;;;0.00;0.00;;;;;15.07;63.22;102082.00;5080812;27;45895;-79
2021/09/02 02:29:03;;;;;;;;;0.00;0.00;;;;;15.22;63.33;102095.28;5018096;28;45346;-80
2021/09/02 02:31:29;;;;;;;;;1.50;0.00;;;;;15.12;62.96;102078.53;5087716;27;47014;-80
2021/09/02 02:33:54;;;;;;;;;0.00;0.00;;;;;15.05;63.20;102056.63;5017725;28;45311;-80
2021/09/02 02:36:20;;;;;;;;;0.75;0.25;;;;;15.15;63.23;102076.84;5017867;27;45750;-79
2021/09/02 02:38:45;;;;;;;;;0.00;0.00;;;;;15.22;63.58;102087.41;5004381;28;45322;-80
2021/09/02 02:41:11;;;;;;;;;0.75;0.75;;;;;15.16;63.52;102083.84;5020348;28;45794;-79
2021/09/02 02:43:36;;;;;;;;;1.00;0.00;;;;;15.21;63.54;102099.63;5020488;27;45339;-80
2021/09/02 02:46:02;;;;;;;;;0.50;0.00;;;;;15.07;63.63;102071.50;5020488;28;45328;-79
2021/09/02 02:48:27;;;;;;;;;1.00;1.00;;;;;15.08;63.50;102075.03;5020620;28;45518;-79
2021/09/02 02:50:52;;;;;;;;;2.00;0.50;;;;;15.07;63.62;102068.03;5020356;28;45348;-79
2021/09/02 02:53:18;;;;;;;;;0.50;0.50;;;;;15.04;63.52;102070.63;5065208;27;45517;-80
2021/09/02 02:55:43;;;;;;;;;0.00;0.00;;;;;14.95;63.76;102061.75;5020638;27;45356;-79
2021/09/02 02:58:08;;;;;;;;;2.50;1.00;;;;;15.00;63.58;102058.31;5020765;28;45437;-79
2021/09/02 03:00:34;;;;;;;;;0.75;0.75;;;;;15.04;63.56;102066.22;5019911;28;45450;-79
2021/09/02 03:02:59;;;;;;;;;1.25;0.25;;;;;15.14;63.98;102084.69;5020083;28;45290;-79
2021/09/02 03:05:24;;;;;;;;;0.00;0.00;;;;;15.01;63.26;102060.09;5020498;27;45300;-80
2021/09/02 03:07:50;;;;;;;;;0.00;0.00;;;;;15.11;63.79;102080.31;5050235;27;45786;-79
2021/09/02 03:10:15;;;;;;;;;0.00;0.00;;;;;14.99;63.48;102046.97;5020128;28;45421;-80
2021/09/02 03:12:40;;;;;;;;;0.00;0.00;;;;;14.98;63.68;102054.81;5020378;27;45733;-79
2021/09/02 03:15:07;;;;;;;;;0.50;0.25;;;;;15.01;63.99;102078.44;5020083;28;45436;-80
2021/09/02 03:17:33;;;;;;;;;1.00;1.00;;;;;14.74;63.81;102035.28;5020118;28;45380;-80
2021/09/02 03:19:58;;;;;;;;;1.00;1.00;;;;;14.88;64.30;102062.56;5035696;27;47244;-79
2021/09/02 03:22:23;;;;;;;;;1.00;0.50;;;;;14.97;63.79;102089.75;5073201;27;45333;-80
2021/09/02 03:24:49;;;;;;;;;1.00;1.00;;;;;14.78;63.75;102063.31;5019175;27;45385;-80
2021/09/02 03:27:14;;;;;;;;;1.00;0.00;;;;;14.75;64.20;102069.38;5067598;27;45414;-79
2021/09/02 03:29:40;;;;;;;;;1.00;0.00;;;;;14.79;64.15;102079.06;5019799;27;46079;-79
2021/09/02 03:32:05;;;;;;;;;0.00;0.00;;;;;14.63;64.23;102048.22;5030523;27;45363;-79
2021/09/02 03:34:30;;;;;;;;;1.50;0.00;;;;;14.77;64.14;102062.41;5019718;28;45160;-80
2021/09/02 03:36:56;;;;;;;;;0.25;0.25;;;;;14.66;64.29;102048.28;5020396;27;45262;-80
2021/09/02 03:39:22;;;;;;;;;0.50;0.00;;;;;14.50;64.24;102032.38;5019446;28;45393;-80
2021/09/02 03:41:47;;;;;;;;;1.00;1.00;;;;;14.74;64.33;102062.38;5019742;27;45389;-80
2021/09/02 03:44:13;;;;;;;;;1.50;0.00;;;;;14.65;64.56;102046.53;5024644;27;45317;-79
2021/09/02 03:46:38;;;;;;;;;3.00;1.00;;;;;14.85;64.18;102065.13;5016409;28;45368;-80
2021/09/02 03:49:04;;;;;;;;;1.75;1.75;;;;;14.87;64.37;102058.19;5018780;28;45328;-79
2021/09/02 03:51:29;;;;;;;;;1.75;1.00;;;;;14.75;64.13;102016.06;5033563;27;45736;-80
2021/09/02 03:53:54;;;;;;;;;0.00;0.00;;;;;14.82;64.22;102038.88;5019948;28;45521;-79
2021/09/02 03:56:20;;;;;;;;;0.00;0.00;;;;;14.66;64.04;102016.81;5019777;27;45456;-79
2021/09/02 03:58:45;;;;;;;;;0.25;0.25;;;;;14.60;64.57;102015.00;5019235;28;46274;-80
2021/09/02 04:01:10;;;;;;;;;2.00;2.00;;;;;14.61;64.35;102003.66;5019272;28;45444;-79
2021/09/02 04:03:36;;;;;;;;;5.00;0.50;;;;;14.64;64.14;102010.69;5019201;28;45448;-79
2021/09/02 04:06:01;;;;;;;;;0.00;0.00;;;;;14.74;64.42;102020.44;5019995;28;45399;-80
2021/09/02 04:08:27;;;;;;;;;1.50;0.50;;;;;14.84;64.24;102045.03;5019083;28;45408;-79
2021/09/02 04:10:52;;;;;;;;;0.00;0.00;;;;;14.77;64.29;102051.94;5019376;27;45451;-79
2021/09/02 04:13:17;;;;;;;;;0.75;0.75;;;;;14.72;64.46;102050.06;5064100;27;45394;-80
2021/09/02 04:15:43;;;;;;;;;0.00;0.00;;;;;14.58;64.49;102042.97;5043932;27;45417;-79
2021/09/02 04:18:08;;;;;;;;;0.00;0.00;;;;;14.60;64.57;102038.59;5019238;28;45548;-80
2021/09/02 04:20:34;;;;;;;;;2.00;1.00;;;;;14.66;64.24;102064.00;5010046;27;45782;-79
2021/09/02 04:22:59;;;;;;;;;0.50;0.00;;;;;14.53;64.51;102053.38;5081025;27;45563;-80
2021/09/02 04:25:24;;;;;;;;;1.25;0.00;;;;;14.44;64.62;102048.88;5020447;27;45661;-79
2021/09/02 04:27:50;;;;;;;;;1.75;1.00;;;;;14.51;64.69;102065.56;5020063;27;46277;-80
2021/09/02 04:30:16;;;;;;;;;2.25;1.50;;;;;14.26;64.56;102022.44;5019424;28;45345;-79
2021/09/02 04:32:42;;;;;;;;;0.00;0.00;;;;;14.56;64.58;102069.13;5018697;28;45420;-79
2021/09/02 04:35:09;;;;;;;;;1.00;1.00;;;;;14.55;64.72;102066.50;5019521;28;45543;-79
2021/09/02 04:37:43;;;;;;;;;1.00;0.00;;;;;14.47;64.94;102057.63;5019028;28;45494;-79
2021/09/02 04:40:10;;;;;;;;;3.00;1.00;;;;;14.40;65.05;102059.31;5018923;28;45442;-79
2021/09/02 04:42:35;;;;;;;;;0.00;0.00;;;;;14.21;64.94;102030.22;5018669;28;45440;-79
2021/09/02 04:45:02;;;;;;;;;0.50;0.50;;;;;14.43;65.26;102069.81;5018773;28;45468;-79
2021/09/02 04:47:28;;;;;;;;;1.00;1.00;;;;;14.22;64.73;102031.09;5031831;27;47146;-79
2021/09/02 04:49:56;;;;;;;;;1.00;0.50;;;;;14.38;65.11;102064.50;5018904;28;45380;-79
2021/09/02 04:52:22;;;;;;;;;0.00;0.00;;;;;14.46;65.01;102059.41;5070319;27;45476;-79
2021/09/02 04:54:47;;;;;;;;;1.00;1.00;;;;;14.42;64.84;102053.22;5019151;28;45381;-79
2021/09/02 04:57:12;;;;;;;;;1.00;1.00;;;;;14.40;64.97;102052.31;5019145;28;46247;-78
2021/09/02 04:59:38;;;;;;;;;3.25;1.75;;;;;14.36;64.96;102050.50;5005105;28;45812;-80
2021/09/02 05:02:03;;;;;;;;;1.00;1.00;;;;;14.27;65.10;102042.53;5014211;28;45375;-81
2021/09/02 05:04:29;;;;;;;;;1.00;1.00;;;;;14.22;65.06;102018.00;5019550;28;45448;-82
2021/09/02 05:06:54;;;;;;;;;0.50;0.00;;;;;14.24;65.11;102029.41;5019457;27;46114;-80
2021/09/02 05:09:20;;;;;;;;;1.75;1.00;;;;;14.37;64.83;102047.03;5021329;28;45377;-81
2021/09/02 05:11:45;;;;;;;;;0.00;0.00;;;;;14.42;64.85;102060.19;5021052;27;45389;-81
2021/09/02 05:14:10;;;;;;;;;1.50;0.75;;;;;14.36;65.08;102060.13;5020580;28;45362;-81
2021/09/02 05:16:35;;;;;;;;;3.00;0.50;;;;;14.28;65.06;102041.66;5020051;28;46127;-80
2021/09/02 05:19:01;;;;;;;;;1.75;1.50;;;;;14.24;65.04;102034.63;5014954;27;45769;-81
2021/09/02 05:21:26;;;;;;;;;0.25;0.00;;;;;14.22;65.31;102032.00;5058389;27;45424;-80
2021/09/02 05:23:52;;;;;;;;;1.00;1.00;;;;;14.39;65.21;102052.28;5021037;28;45266;-79
2021/09/02 05:26:17;;;;;;;;;5.00;1.00;;;;;14.45;65.19;102060.22;5069255;27;46013;-80
2021/09/02 05:28:43;;;;;;;;;3.25;1.00;;;;;14.32;65.27;102044.34;5020354;28;45388;-80
2021/09/02 05:31:08;;;;;;;;;3.00;3.00;;;;;14.46;64.84;102056.78;5073705;27;45314;-80
2021/09/02 05:33:34;;;;;;;;;0.50;0.50;;;;;14.44;64.89;102048.88;5019823;28;45347;-80
2021/09/02 05:35:59;;;;;;;;;1.25;0.50;;;;;14.10;64.39;101989.91;5020958;28;46235;-81
2021/09/02 05:38:25;;;;;;;;;0.50;0.50;;;;;14.44;64.63;102027.94;5021427;27;45370;-80
2021/09/02 05:40:50;;;;;;;;;0.75;0.75;;;;;14.68;64.77;102055.28;5019888;28;45471;-79
2021/09/02 05:43:15;;;;;;;;;0.25;0.25;;;;;14.48;64.72;101996.53;5021159;28;45159;-80
2021/09/02 05:45:41;;;;;;;;;2.00;0.25;;;;;14.61;64.32;102014.13;5018085;28;45373;-80
2021/09/02 05:48:06;;;;;;;;;3.00;1.50;;;;;14.82;64.25;102042.38;5017192;28;45322;-80
2021/09/02 05:50:32;;;;;;;;;0.75;0.50;;;;;14.49;64.09;102003.53;5017324;28;45356;-80
2021/09/02 05:52:57;;;;;;;;;3.00;3.00;;;;;14.55;64.20;102024.56;5017229;28;45351;-80
2021/09/02 05:55:22;;;;;;;;;1.00;1.00;;;;;14.49;64.40;102024.47;5017642;27;45296;-79
2021/09/02 05:57:48;;;;;;;;;0.00;0.00;;;;;14.45;64.32;102036.66;5021334;27;45764;-79
2021/09/02 06:00:14;;;;;;;;;0.00;0.00;;;;;14.50;64.35;102037.59;5023882;27;45395;-79
2021/09/02 06:02:39;;;;;;;;;1.25;0.75;;;;;14.61;64.19;102047.34;5020795;27;45372;-78
2021/09/02 06:05:06;;;;;;;;;0.75;0.25;;;;;14.62;64.32;102050.00;5072369;27;47375;-78
2021/09/02 06:07:32;;;;;;;;;0.75;0.75;;;;;14.43;64.28;102026.16;5027533;28;45278;-79
2021/09/02 06:09:57;;;;;;;;;1.50;1.50;;;;;14.44;64.28;102025.31;5018839;28;45506;-79
2021/09/02 06:12:22;;;;;;;;;0.00;0.00;;;;;14.38;64.38;102026.94;5107959;27;45427;-79
2021/09/02 06:14:47;;;;;;;;;1.00;1.00;;;;;14.55;64.45;102062.13;5008534;27;48052;-80
2021/09/02 06:17:13;;;;;;;;;0.25;0.25;;;;;14.30;64.60;102009.41;5023404;28;45484;-79
2021/09/02 06:19:38;;;;;;;;;0.75;0.00;;;;;14.60;64.72;102051.69;5020812;28;45444;-78
2021/09/02 06:22:04;;;;;;;;;1.00;0.50;;;;;14.68;64.51;102051.81;5013670;27;45553;-78
2021/09/02 06:24:29;;;;;;;;;0.00;0.00;;;;;14.69;64.49;102059.69;4999677;28;46337;-78
2021/09/02 06:26:55;;;;;;;;;0.50;0.50;;;;;14.57;64.28;102036.81;4998515;28;45416;-77
2021/09/02 06:29:20;;;;;;;;;0.50;0.25;;;;;14.76;64.46;102055.38;5014659;28;45334;-78
2021/09/02 06:31:46;;;;;;;;;0.50;0.50;;;;;14.59;64.47;102018.50;5009984;28;45352;-78
2021/09/02 06:34:11;;;;;;;;;0.00;0.00;;;;;14.68;64.53;102030.84;5006365;28;46191;-79
2021/09/02 06:36:36;;;;;;;;;1.50;1.50;;;;;14.87;64.27;102060.81;5016253;28;45243;-80
2021/09/02 06:39:02;;;;;;;;;2.25;2.00;;;;;14.72;64.04;102034.34;5004764;28;45310;-81
2021/09/02 06:41:27;;;;;;;;;1.00;1.00;;;;;14.67;63.83;102027.31;5010001;28;45330;-81
2021/09/02 06:43:52;;;;;;;;;2.75;0.75;;;;;14.82;64.33;102046.75;5014542;28;45277;-79
2021/09/02 06:46:18;;;;;;;;;1.50;1.50;;;;;14.90;64.02;102062.56;5008927;28;45271;-79
2021/09/02 06:48:43;;;;;;;;;3.50;1.00;;;;;14.82;63.91;102038.88;4997964;28;45598;-79
2021/09/02 06:51:08;;;;;;;;;4.75;2.25;;;;;14.96;63.77;102060.03;5002663;28;45502;-80
2021/09/02 06:53:34;;;;;;;;;5.00;3.00;;;;;15.00;63.74;102058.31;5001565;28;46981;-79
2021/09/02 06:55:59;;;;;;;;;1.00;1.00;;;;;15.02;63.58;102046.09;4998174;28;45497;-79
2021/09/02 06:58:24;;;;;;;;;2.50;1.00;;;;;15.12;63.81;102063.69;5001124;28;45435;-79
2021/09/02 07:00:50;;;;;;;;;1.00;1.00;;;;;15.16;63.54;102073.34;5002526;28;45976;-79
2021/09/02 07:03:15;;;;;;;;;1.00;1.00;;;;;15.17;63.96;102064.66;5010958;28;48381;-80
2021/09/02 07:05:40;;;;;;;;;4.00;3.00;;;;;15.02;63.60;102025.13;5007535;28;45511;-81
2021/09/02 07:08:06;;;;;;;;;0.50;0.25;;;;;15.36;63.34;102069.19;5017581;28;45489;-79
2021/09/02 07:10:31;;;;;;;;;1.00;1.00;;;;;15.27;63.23;102055.13;4990539;28;45925;-80
2021/09/02 07:12:56;;;;;;;;;1.00;0.25;;;;;15.37;63.25;102068.34;5006238;28;45354;-81
2021/09/02 07:15:22;;;;;;;;;2.00;0.00;;;;;15.36;63.42;102045.56;5001228;28;45377;-80
2021/09/02 07:17:47;;;;;;;;;0.25;0.25;;;;;15.47;63.17;102064.03;5000515;28;45365;-82
2021/09/02 07:20:13;;;;;;;;;1.00;1.00;;;;;15.49;63.32;102063.19;5000870;28;45383;-80
2021/09/02 07:22:38;;;;;;;;;1.50;1.00;;;;;15.32;63.17;102024.53;5014118;28;46925;-82
2021/09/02 07:25:05;;;;;;;;;1.50;1.00;;;;;15.58;62.99;102055.41;4999401;28;45350;-81
2021/09/02 07:27:30;;;;;;;;;3.50;1.25;;;;;15.55;63.30;102037.00;5001074;28;45413;-84
2021/09/02 07:29:55;;;;;;;;;0.25;0.25;;;;;15.42;63.04;102012.41;5004872;28;45484;-81
2021/09/02 07:32:21;;;;;;;;;4.00;2.00;;;;;15.47;62.85;102022.06;5008806;28;46333;-78
2021/09/02 07:34:46;;;;;;;;;1.00;1.00;;;;;15.74;62.54;102068.66;5016225;28;45227;-82
2021/09/02 07:37:12;;;;;;;;;2.50;1.00;;;;;15.88;62.88;102081.00;4997525;28;45630;-79
2021/09/02 07:39:37;;;;;;;;;0.25;0.25;;;;;15.87;62.70;102068.75;4998571;28;45288;-80
2021/09/02 07:42:04;;;;;;;;;1.00;0.75;;;;;15.88;62.45;102058.28;4997147;28;45310;-82
2021/09/02 07:44:30;;;;;;;;;3.50;1.50;;;;;15.74;62.32;102016.16;5012967;28;45355;-82
2021/09/02 07:46:55;;;;;;;;;1.50;0.25;;;;;16.09;62.26;102064.56;5083636;27;45461;-82
2021/09/02 07:49:21;;;;;;;;;1.00;1.00;;;;;15.95;62.26;102044.31;5030572;28;45402;-83
2021/09/02 07:51:46;;;;;;;;;2.75;2.75;;;;;16.06;61.89;102043.53;4997941;28;47201;-85
2021/09/02 07:54:12;;;;;;;;;0.25;0.25;;;;;15.89;61.85;102004.00;4995918;28;45495;-85
2021/09/02 07:56:37;;;;;;;;;1.00;1.00;;;;;16.17;61.49;102038.38;5004155;28;45302;-83
2021/09/02 07:59:03;;;;;;;;;0.75;0.75;;;;;16.43;62.00;102063.91;5005362;28;45542;-83
2021/09/02 08:01:29;;;;;;;;;0.00;0.00;;;;;16.33;61.78;102034.06;4996711;28;45461;-78
2021/09/02 08:03:54;;;;;;;;;4.00;0.25;;;;;16.56;61.53;102054.31;4997534;28;45418;-78
2021/09/02 08:06:19;;;;;;;;;1.00;1.00;;;;;16.59;61.57;102056.97;4996613;28;45485;-78
2021/09/02 08:08:45;;;;;;;;;1.00;1.00;;;;;16.59;61.09;102049.06;4998106;28;45552;-78
2021/09/02 08:11:10;;;;;;;;;0.00;0.00;;;;;16.64;61.08;102046.47;4993017;28;47209;-79
2021/09/02 08:13:36;;;;;;;;;1.00;1.00;;;;;16.72;61.13;102043.00;4997136;28;45434;-79
2021/09/02 08:16:01;;;;;;;;;0.25;0.25;;;;;16.81;60.57;102042.16;4997217;28;45479;-78
2021/09/02 08:18:27;;;;;;;;;0.50;0.50;;;;;17.00;60.74;102062.38;4998843;28;45639;-82
2021/09/02 08:20:53;;;;;;;;;3.00;1.75;;;;;16.87;60.51;102024.66;5001381;28;45570;-83
2021/09/02 08:23:18;;;;;;;;;0.00;0.00;;;;;16.96;60.67;102025.53;5009706;28;45191;-82
2021/09/02 08:25:43;;;;;;;;;1.00;1.00;;;;;17.19;60.46;102055.44;4987196;28;45434;-78
2021/09/02 08:28:09;;;;;;;;;0.00;0.00;;;;;17.12;60.19;102037.88;4993628;28;45548;-81
2021/09/02 08:30:35;;;;;;;;;1.25;1.25;;;;;17.32;59.80;102065.13;4982325;28;45363;-82
2021/09/02 08:33:00;;;;;;;;;3.00;1.00;;;;;17.34;59.92;102065.97;4979843;28;46344;-80
2021/09/02 08:35:30;;;;;;;;;2.00;0.00;;;;;17.39;59.61;102051.97;4980123;28;45523;-81
2021/09/02 08:37:59;;;;;;;;;2.50;0.25;;;;;17.20;59.94;102001.94;4979069;28;45496;-80
2021/09/02 08:40:27;;;;;;;;;0.75;0.75;;;;;17.36;59.32;102008.06;4980017;28;46474;-80
2021/09/02 08:42:54;;;;;;;;;1.00;1.00;;;;;17.57;58.94;102032.66;4982148;28;45367;-81
2021/09/02 08:45:21;;;;;;;;;1.25;1.25;;;;;17.32;59.60;101983.53;4981442;28;45573;-80
2021/09/02 08:47:48;;;;;;;;;1.00;1.00;;;;;17.69;59.82;102030.03;4978764;28;45440;-81
2021/09/02 08:50:15;;;;;;;;;0.50;0.50;;;;;17.76;59.54;102030.03;4977229;28;48774;-81
2021/09/02 08:52:41;;;;;;;;;1.00;1.00;;;;;17.77;59.50;102019.50;4994938;28;45495;-80
2021/09/02 08:55:07;;;;;;;;;1.00;0.00;;;;;17.74;59.22;101990.53;4984887;28;45409;-81
2021/09/02 08:57:33;;;;;;;;;1.00;1.00;;;;;17.77;59.05;101987.00;4987658;28;45478;-81
2021/09/02 08:59:58;;;;;;;;;3.00;0.00;;;;;18.14;58.73;102026.47;4991656;28;45490;-80
2021/09/02 09:02:25;;;;;;;;;3.00;1.00;;;;;18.26;58.77;102014.16;4982220;28;45324;-81
2021/09/02 09:05:03;;;;;;;;;0.25;0.25;;;;;18.35;58.68;102017.63;5010592;28;45480;-81
2021/09/02 09:07:44;;;;;;;;;1.25;1.25;;;;;18.41;58.93;102015.84;5018498;28;45619;-81
2021/09/02 09:10:21;;;;;;;;;1.50;0.00;;;;;18.46;58.48;102014.06;4984905;28;47285;-82
2021/09/02 09:12:51;;;;;;;;;2.00;1.25;;;;;18.47;57.90;102010.56;4978953;28;45429;-81
2021/09/02 09:15:25;;;;;;;;;0.75;0.50;;;;;18.63;58.17;102029.81;4984987;28;45858;-81
2021/09/02 09:17:53;;;;;;;;;1.50;0.00;;;;;18.63;58.23;102007.84;4995978;28;45505;-81
2021/09/02 09:20:21;;;;;;;;;1.50;1.50;;;;;18.85;57.70;102020.03;4979744;28;48722;-82
2021/09/02 09:22:58;;;;;;;;;1.00;1.00;;;;;18.86;58.00;101987.50;4996557;27;45438;-81
2021/09/02 09:25:26;;;;;;;;;1.00;1.00;;;;;18.84;57.37;101952.31;4998232;28;45403;-81
2021/09/02 09:27:54;;;;;;;;;0.00;0.00;;;;;18.96;57.15;101947.88;4999340;28;45427;-81
2021/09/02 09:30:30;;;;;;;;;0.50;0.50;;;;;19.22;56.67;101991.69;5000706;28;46211;-82
2021/09/02 09:32:56;;;;;;;;;1.00;1.00;;;;;19.30;56.21;102008.34;4986208;28;45396;-81
2021/09/02 09:35:23;;;;;;;;;1.00;1.00;;;;;19.39;56.45;102001.22;5000817;28;45330;-82
2021/09/02 09:37:51;;;;;;;;;0.75;0.75;;;;;19.43;56.33;102002.94;5004454;28;45409;-81
2021/09/02 09:40:21;;;;;;;;;1.25;1.25;;;;;19.51;56.09;101998.50;4997858;28;45458;-81
2021/09/02 09:43:14;;;;;;;;;1.00;1.00;;;;;19.32;56.23;101958.16;4991770;28;45163;-80
2021/09/02 09:45:39;;;;;;;;;0.50;0.50;;;;;19.59;56.07;101987.84;5035427;28;45490;-81
2021/09/02 09:48:28;;;;;;;;;1.00;1.00;;;;;19.44;55.84;101967.72;5003406;28;45497;-83
2021/09/02 09:51:16;;;;;;;;;1.00;1.00;;;;;19.60;56.22;101984.34;5008376;28;45306;-83
2021/09/02 09:53:52;;;;;;;;;0.00;0.00;;;;;19.68;55.83;101984.22;5007048;28;45780;-80
2021/09/02 09:56:24;;;;;;;;;1.00;0.00;;;;;19.59;55.86;101953.50;5016976;28;45574;-81
2021/09/02 09:58:52;;;;;;;;;2.25;1.00;;;;;19.90;55.21;101987.53;5013928;28;45212;-81
2021/09/02 10:01:18;;;;;;;;;2.50;1.00;;;;;19.80;54.82;101954.19;4999950;28;45403;-81
2021/09/02 10:03:45;;;;;;;;;1.00;1.00;;;;;19.83;55.31;101946.22;4996334;28;45481;-81
2021/09/02 10:06:12;;;;;;;;;3.50;1.00;;;;;19.74;54.68;101928.69;4997135;28;45350;-82
2021/09/02 10:08:41;;;;;;;;;0.00;0.00;;;;;20.05;54.79;101970.66;4995262;28;45352;-81
2021/09/02 10:11:09;;;;;;;;;1.00;1.00;;;;;19.93;54.56;101929.38;4993677;28;46343;-81
2021/09/02 10:13:36;;;;;;;;;1.00;0.00;;;;;20.25;54.52;101975.69;5000310;28;45963;-82
2021/09/02 10:16:03;;;;;;;;;2.00;2.00;;;;;20.16;54.67;101953.81;5003208;28;44721;-81
2021/09/02 10:18:30;;;;;;;;;0.00;0.00;;;;;20.35;54.67;101970.31;4997226;28;45371;-80
2021/09/02 10:21:01;;;;;;;;;0.50;0.25;;;;;20.31;54.82;101945.69;5001529;28;47948;-82
2021/09/02 10:23:27;;;;;;;;;1.75;1.75;;;;;20.51;54.33;101965.69;5016778;28;45397;-82
2021/09/02 10:25:52;;;;;;;;;3.00;1.00;;;;;20.53;53.89;101958.63;5022320;27;45359;-82
2021/09/02 10:28:35;;;;;;;;;4.75;1.00;;;;;20.63;54.23;101962.00;5009849;28;45533;-81
2021/09/02 10:31:22;;;;;;;;;1.75;0.50;;;;;20.58;53.57;101937.41;4997597;27;47347;-82
2021/09/02 10:33:47;;;;;;;;;0.50;0.50;;;;;20.75;53.12;101961.84;5074732;27;45355;-81
2021/09/02 10:36:15;;;;;;;;;1.00;1.00;;;;;20.84;53.79;101962.59;5018405;27;45469;-81
2021/09/02 10:38:48;;;;;;;;;1.25;1.00;;;;;20.86;53.25;101944.91;5018240;28;45412;-84
2021/09/02 10:41:14;;;;;;;;;0.50;0.50;;;;;20.89;53.05;101944.88;5022426;27;47755;-82
2021/09/02 10:43:45;;;;;;;;;0.75;0.00;;;;;20.93;53.06;101945.72;5017013;28;45512;-83
2021/09/02 10:46:25;;;;;;;;;0.25;0.25;;;;;20.99;53.15;101946.50;5016456;28;45486;-80
2021/09/02 10:48:51;;;;;;;;;1.00;0.00;;;;;20.99;52.80;101942.97;5019843;28;45563;-82
2021/09/02 10:51:44;;;;;;;;;0.00;0.00;;;;;21.06;51.85;101944.63;5017626;28;45380;-82
2021/09/02 10:54:10;;;;;;;;;2.00;0.00;;;;;21.13;51.56;101956.84;5017325;28;45368;-83
2021/09/02 10:56:55;;;;;;;;;1.00;0.00;;;;;21.21;51.40;101945.25;5036053;27;45445;-82
2021/09/02 10:59:48;;;;;;;;;1.00;1.00;;;;;21.28;51.04;101941.59;5020532;28;45649;-82
2021/09/02 11:02:16;;;;;;;;;0.25;0.25;;;;;21.30;51.31;101937.16;5019288;28;45250;-82
2021/09/02 11:04:42;;;;;;;;;0.50;0.00;;;;;21.27;51.39;101932.81;5018512;28;45460;-82
2021/09/02 11:07:07;;;;;;;;;0.75;0.75;;;;;21.30;51.01;101923.03;5018092;28;45487;-81
2021/09/02 11:09:35;;;;;;;;;0.00;0.00;;;;;21.39;50.84;101926.41;5018938;28;45427;-82
2021/09/02 11:12:05;;;;;;;;;1.00;1.00;;;;;21.54;51.11;101937.63;5015279;28;46202;-78
2021/09/02 11:14:30;;;;;;;;;0.75;0.75;;;;;21.42;50.86;101917.53;5020318;28;45566;-81
2021/09/02 11:16:56;;;;;;;;;0.00;0.00;;;;;21.46;50.50;101918.34;5019819;27;45489;-82
2021/09/02 11:19:36;;;;;;;;;2.00;2.00;;;;;21.55;51.25;101927.88;5023307;27;45434;-82
2021/09/02 11:22:20;;;;;;;;;0.25;0.00;;;;;21.67;50.59;101934.72;5034845;27;47560;-79
2021/09/02 11:24:51;;;;;;;;;0.50;0.50;;;;;21.65;49.99;101933.00;5021025;27;45451;-80